Time;durP1;ratioP1;P1;durP2;ratioP2;P2;SDS_P1;SDS_P2;PMS_P1;PMS_P2;Temp;Humidity;BMP_temperature;BMP_pressure;BME280_temperature;BME280_humidity;BME280_pressure;Samples;Min_cycle;Max_cycle;Signal;HPM_P1;HPM_P2
2022/06/01 00:00:10;;;;;;;8.00;5.65;;;11.20;99.90;;;;;;5043152;28;20047;-79
2022/06/01 00:02:37;;;;;;;8.35;6.20;;;11.20;99.90;;;;;;5032181;28;20041;-79
2022/06/01 00:05:04;;;;;;;8.15;6.28;;;11.20;99.90;;;;;;5038437;28;20665;-79
2022/06/01 00:07:30;;;;;;;9.30;6.15;;;11.20;99.90;;;;;;5048996;28;20619;-79
2022/06/01 00:09:55;;;;;;;10.93;6.22;;;11.20;99.90;;;;;;5048292;28;20115;-79
2022/06/01 00:12:22;;;;;;;8.10;6.60;;;11.20;99.90;;;;;;5081780;28;20260;-80
2022/06/01 00:14:47;;;;;;;9.57;7.15;;;11.20;99.90;;;;;;5047653;28;20059;-79
2022/06/01 00:17:16;;;;;;;8.82;6.55;;;11.20;99.90;;;;;;5049903;28;20350;-79
2022/06/01 00:19:43;;;;;;;9.80;6.57;;;11.20;99.90;;;;;;5047149;28;20492;-80
2022/06/01 00:22:12;;;;;;;8.35;6.65;;;11.20;99.90;;;;;;5044839;28;20401;-79
2022/06/01 00:24:42;;;;;;;7.30;5.68;;;11.20;99.90;;;;;;5049437;28;20144;-80
2022/06/01 00:27:09;;;;;;;9.88;6.70;;;11.20;99.90;;;;;;5043815;28;20084;-80
2022/06/01 00:29:35;;;;;;;9.52;6.45;;;11.20;99.90;;;;;;5044328;28;20068;-79
2022/06/01 00:32:02;;;;;;;8.13;6.10;;;11.20;99.90;;;;;;5047143;28;20029;-80
2022/06/01 00:34:28;;;;;;;9.85;7.38;;;11.20;99.90;;;;;;5040880;28;20045;-79
2022/06/01 00:36:53;;;;;;;9.23;6.38;;;11.20;99.90;;;;;;5050169;28;20552;-80
2022/06/01 00:39:19;;;;;;;9.30;7.07;;;11.20;99.90;;;;;;5040767;28;20052;-79
2022/06/01 00:41:45;;;;;;;8.27;6.97;;;11.20;99.90;;;;;;5047421;28;20041;-80
2022/06/01 00:44:11;;;;;;;11.30;6.72;;;11.20;99.90;;;;;;5045700;28;20102;-80
2022/06/01 00:46:37;;;;;;;12.57;7.10;;;11.20;99.90;;;;;;5045812;28;20033;-80
2022/06/01 00:49:23;;;;;;;11.30;8.10;;;11.30;99.90;;;;;;5047383;28;20044;-80
2022/06/01 00:51:51;;;;;;;13.45;6.18;;;11.30;99.90;;;;;;5043339;28;20060;-81
2022/06/01 00:54:16;;;;;;;10.57;8.57;;;11.30;99.90;;;;;;5047858;28;20164;-78
2022/06/01 00:56:49;;;;;;;10.75;7.82;;;11.40;99.90;;;;;;5045006;28;20152;-79
2022/06/01 00:59:22;;;;;;;12.70;7.57;;;11.30;99.90;;;;;;5042519;28;20048;-79
2022/06/01 01:01:49;;;;;;;10.82;7.30;;;11.30;99.90;;;;;;5038067;28;20037;-80
2022/06/01 01:04:15;;;;;;;10.57;7.97;;;11.30;99.90;;;;;;5040739;28;20511;-80
2022/06/01 01:06:41;;;;;;;9.85;7.97;;;11.40;99.90;;;;;;5041040;28;20199;-80
2022/06/01 01:09:09;;;;;;;12.35;8.18;;;11.30;99.90;;;;;;5079962;28;20053;-80
2022/06/01 01:11:39;;;;;;;10.98;8.10;;;11.30;99.90;;;;;;5039468;28;20100;-80
2022/06/01 01:14:08;;;;;;;13.23;8.30;;;11.30;99.90;;;;;;5045919;28;20055;-80
2022/06/01 01:16:35;;;;;;;12.57;8.27;;;11.30;99.90;;;;;;5045210;28;20051;-82
2022/06/01 01:19:05;;;;;;;13.65;8.90;;;11.40;99.90;;;;;;5040473;28;20404;-80
2022/06/01 01:21:46;;;;;;;11.32;8.50;;;11.40;99.90;;;;;;5040411;28;20523;-80
2022/06/01 01:24:37;;;;;;;13.15;9.52;;;11.30;99.90;;;;;;5046581;28;20093;-81
2022/06/01 01:27:04;;;;;;;13.25;8.90;;;11.40;99.90;;;;;;5035454;28;20060;-80
2022/06/01 01:29:39;;;;;;;10.18;8.80;;;11.30;99.90;;;;;;5041767;28;20161;-81
2022/06/01 01:32:07;;;;;;;13.40;8.73;;;11.30;99.90;;;;;;5037910;28;20136;-80
2022/06/01 01:34:35;;;;;;;11.05;8.75;;;11.30;99.90;;;;;;5047516;28;20515;-79
2022/06/01 01:37:07;;;;;;;11.10;8.82;;;11.40;99.90;;;;;;5044897;28;20057;-79
2022/06/01 01:39:35;;;;;;;14.48;9.95;;;11.40;99.90;;;;;;5037008;28;20041;-79
2022/06/01 01:42:02;;;;;;;14.18;9.55;;;11.40;99.90;;;;;;5040051;28;20060;-78
2022/06/01 01:44:34;;;;;;;11.55;8.55;;;11.40;99.90;;;;;;5038603;28;20148;-79
2022/06/01 01:47:01;;;;;;;10.02;8.27;;;11.40;99.90;;;;;;5040727;28;20049;-79
2022/06/01 01:49:33;;;;;;;11.15;8.68;;;11.40;99.90;;;;;;5044338;28;20106;-78
2022/06/01 01:52:02;;;;;;;9.93;8.50;;;11.40;99.90;;;;;;5043497;28;20048;-78
2022/06/01 01:54:56;;;;;;;14.50;8.38;;;11.40;99.90;;;;;;5048493;28;20053;-79
2022/06/01 01:57:41;;;;;;;12.00;9.18;;;11.40;99.90;;;;;;5038698;28;20503;-79
2022/06/01 02:00:36;;;;;;;13.52;9.25;;;11.40;99.90;;;;;;5043255;28;20045;-79
2022/06/01 02:03:10;;;;;;;11.23;7.72;;;11.40;99.90;;;;;;5046387;28;20457;-79
2022/06/01 02:06:12;;;;;;;11.18;8.90;;;11.40;99.90;;;;;;5044052;28;20053;-79
2022/06/01 02:08:48;;;;;;;10.35;7.80;;;11.50;99.90;;;;;;5044755;28;20052;-79
2022/06/01 02:14:34;;;;;;;11.32;8.10;;;11.40;99.90;;;;;;5043780;28;20056;-81
2022/06/01 02:17:11;;;;;;;8.85;7.55;;;11.40;99.90;;;;;;5046168;28;20052;-80
2022/06/01 02:19:48;;;;;;;10.50;8.38;;;11.30;99.90;;;;;;5043564;28;20135;-79
2022/06/01 02:22:14;;;;;;;9.82;8.25;;;11.20;99.90;;;;;;5040069;28;20044;-80
2022/06/01 02:24:42;;;;;;;9.40;7.63;;;11.30;99.90;;;;;;5047253;28;20056;-79
2022/06/01 02:27:09;;;;;;;10.52;8.65;;;11.30;99.90;;;;;;5045906;28;20099;-80
2022/06/01 02:29:40;;;;;;;11.50;9.40;;;11.30;99.90;;;;;;5040359;28;20393;-79
2022/06/01 02:32:08;;;;;;;9.27;8.27;;;11.30;99.90;;;;;;5042534;28;20142;-79
2022/06/01 02:34:37;;;;;;;11.75;9.30;;;11.20;99.90;;;;;;5035959;28;20048;-80
2022/06/01 02:37:04;;;;;;;12.13;9.57;;;11.20;99.90;;;;;;5047186;28;20045;-80
2022/06/01 02:39:31;;;;;;;12.05;7.90;;;11.20;99.90;;;;;;5032023;28;20049;-79
2022/06/01 02:42:25;;;;;;;12.63;10.40;;;11.20;99.90;;;;;;5044861;28;20053;-79
2022/06/01 02:45:08;;;;;;;11.63;8.90;;;11.20;99.90;;;;;;5038628;28;20043;-79
2022/06/01 02:47:39;;;;;;;11.77;9.50;;;11.20;99.90;;;;;;5034822;28;20409;-79
2022/06/01 02:50:07;;;;;;;12.30;9.40;;;11.20;99.90;;;;;;5038758;28;20053;-80
2022/06/01 02:52:33;;;;;;;11.60;10.00;;;11.20;99.90;;;;;;5041723;28;20533;-79
2022/06/01 02:54:59;;;;;;;11.05;9.38;;;11.20;99.90;;;;;;5037066;28;20060;-79
2022/06/01 02:57:24;;;;;;;13.82;11.35;;;11.20;99.90;;;;;;5045301;28;20186;-80
2022/06/01 02:59:50;;;;;;;13.02;10.25;;;11.20;99.90;;;;;;5040680;28;20036;-79
2022/06/01 03:02:17;;;;;;;16.77;10.95;;;11.20;99.90;;;;;;5037748;28;20049;-80
2022/06/01 03:04:43;;;;;;;14.70;11.10;;;11.10;99.90;;;;;;5038023;28;20115;-80
2022/06/01 03:07:10;;;;;;;15.48;11.57;;;11.20;99.90;;;;;;5043312;28;20381;-79
2022/06/01 03:09:37;;;;;;;13.38;11.35;;;11.20;99.90;;;;;;5041364;28;20055;-80
2022/06/01 03:12:04;;;;;;;15.18;11.32;;;11.20;99.90;;;;;;5044874;28;20043;-79
2022/06/01 03:14:30;;;;;;;14.57;11.35;;;11.20;99.90;;;;;;5041213;28;20685;-80
2022/06/01 03:16:56;;;;;;;16.77;11.80;;;11.20;99.90;;;;;;5032103;28;20061;-80
2022/06/01 03:19:22;;;;;;;17.05;11.82;;;11.20;99.90;;;;;;5034078;28;20258;-80
2022/06/01 03:21:48;;;;;;;15.25;11.85;;;11.20;99.90;;;;;;5040905;28;20820;-80
2022/06/01 03:24:14;;;;;;;13.52;11.75;;;11.10;99.90;;;;;;5039970;28;20430;-79
2022/06/01 03:26:41;;;;;;;13.13;11.48;;;11.20;99.90;;;;;;5035739;28;20044;-80
2022/06/01 03:29:08;;;;;;;13.57;11.45;;;11.10;99.90;;;;;;5041215;28;20097;-80
2022/06/01 03:31:34;;;;;;;16.60;13.00;;;11.20;99.90;;;;;;5039273;28;20052;-78
2022/06/01 03:33:59;;;;;;;17.60;12.05;;;11.10;99.90;;;;;;5044489;28;20154;-79
2022/06/01 03:36:25;;;;;;;16.55;13.30;;;11.10;99.90;;;;;;5041630;28;20037;-78
2022/06/01 03:38:51;;;;;;;16.15;11.75;;;11.10;99.90;;;;;;5043092;28;20069;-78
2022/06/01 03:41:17;;;;;;;14.77;13.02;;;11.10;99.90;;;;;;5042047;28;20045;-77
2022/06/01 03:46:28;;;;;;;15.05;12.35;;;11.10;99.90;;;;;;5033367;28;20052;-78
2022/06/01 03:48:54;;;;;;;13.60;11.68;;;11.00;99.90;;;;;;5043690;28;20049;-78
2022/06/01 03:51:19;;;;;;;15.18;12.98;;;11.00;99.90;;;;;;5044698;28;20048;-78
2022/06/01 03:53:45;;;;;;;15.65;12.98;;;11.00;99.90;;;;;;5044936;28;20045;-78
2022/06/01 03:56:11;;;;;;;15.00;12.88;;;11.10;99.90;;;;;;5045863;28;20037;-79
2022/06/01 03:58:36;;;;;;;16.67;12.65;;;11.10;99.90;;;;;;5041720;28;20048;-78
2022/06/01 04:01:06;;;;;;;17.42;12.07;;;11.10;99.90;;;;;;5035854;28;20045;-79
2022/06/01 04:03:32;;;;;;;15.43;12.98;;;11.10;99.90;;;;;;5034309;28;20037;-79
2022/06/01 04:05:58;;;;;;;16.70;12.55;;;11.10;99.90;;;;;;5045777;28;20041;-79
2022/06/01 04:08:24;;;;;;;14.00;11.82;;;11.20;99.90;;;;;;5041977;28;20684;-79
2022/06/01 04:10:49;;;;;;;14.85;13.15;;;11.20;99.90;;;;;;5042042;28;20041;-78
2022/06/01 04:13:15;;;;;;;16.52;13.27;;;11.20;99.90;;;;;;5044305;28;20119;-80
2022/06/01 04:15:42;;;;;;;21.02;14.43;;;11.30;99.90;;;;;;5046385;28;20044;-79
2022/06/01 04:18:08;;;;;;;20.45;14.23;;;11.20;99.90;;;;;;5046815;28;20116;-79
2022/06/01 04:20:34;;;;;;;18.25;12.93;;;11.30;99.90;;;;;;5038346;28;20052;-78
2022/06/01 04:23:00;;;;;;;16.17;13.40;;;11.40;99.90;;;;;;5047333;28;20041;-79
2022/06/01 04:25:28;;;;;;;17.38;13.88;;;11.30;99.90;;;;;;5046604;28;20037;-79
2022/06/01 04:27:54;;;;;;;15.30;12.68;;;11.30;99.90;;;;;;5041050;28;20045;-79
2022/06/01 04:30:21;;;;;;;14.85;12.60;;;11.40;99.90;;;;;;5044077;28;20158;-79
2022/06/01 04:32:50;;;;;;;17.85;13.27;;;11.40;99.90;;;;;;5044651;28;20044;-79
2022/06/01 04:35:21;;;;;;;17.52;13.52;;;11.40;99.90;;;;;;5050417;28;20065;-79
2022/06/01 04:37:47;;;;;;;17.85;14.60;;;11.40;99.90;;;;;;5045536;28;20041;-79
2022/06/01 04:40:13;;;;;;;18.02;14.30;;;11.50;99.90;;;;;;5038720;28;20037;-78
2022/06/01 04:42:40;;;;;;;18.20;15.20;;;11.50;99.90;;;;;;5050028;28;20045;-79
2022/06/01 04:45:08;;;;;;;15.65;13.35;;;11.50;99.90;;;;;;5046810;28;20048;-78
2022/06/01 04:47:33;;;;;;;16.10;14.32;;;11.60;99.90;;;;;;5046891;28;20435;-79
2022/06/01 04:49:59;;;;;;;18.73;14.48;;;11.60;99.90;;;;;;5043122;28;20061;-78
2022/06/01 04:52:25;;;;;;;15.75;12.63;;;11.60;99.90;;;;;;5047410;28;20049;-79
2022/06/01 04:54:51;;;;;;;15.90;13.30;;;11.70;99.90;;;;;;5044469;28;20520;-79
2022/06/01 04:57:16;;;;;;;17.45;13.68;;;11.70;99.90;;;;;;5048701;28;20040;-78
2022/06/01 04:59:42;;;;;;;18.33;14.50;;;11.70;99.90;;;;;;5039849;28;20055;-79
2022/06/01 05:02:08;;;;;;;16.25;13.85;;;11.70;99.90;;;;;;5041339;28;20098;-78
2022/06/01 05:04:34;;;;;;;17.08;14.93;;;11.80;99.90;;;;;;5041250;28;20407;-79
2022/06/01 05:07:00;;;;;;;17.70;13.07;;;11.80;99.90;;;;;;5045645;28;20045;-80
2022/06/01 05:09:26;;;;;;;17.70;13.90;;;11.70;99.90;;;;;;5047819;28;20397;-80
2022/06/01 05:11:52;;;;;;;16.58;14.13;;;11.90;99.90;;;;;;5045730;28;20098;-80
2022/06/01 05:14:18;;;;;;;16.42;13.65;;;11.90;99.90;;;;;;5045920;28;20041;-80
2022/06/01 05:16:43;;;;;;;17.73;14.80;;;11.90;99.90;;;;;;5033503;28;20366;-80
2022/06/01 05:19:09;;;;;;;19.67;14.40;;;11.90;99.90;;;;;;5035799;28;20334;-80
2022/06/01 05:21:35;;;;;;;17.85;13.68;;;11.90;99.90;;;;;;5041347;28;20071;-79
2022/06/01 05:24:01;;;;;;;15.50;13.50;;;11.90;99.90;;;;;;5037072;28;20081;-80
2022/06/01 05:26:27;;;;;;;20.05;13.85;;;12.00;99.90;;;;;;5043548;28;20033;-80
2022/06/01 05:28:53;;;;;;;20.33;15.23;;;12.00;99.90;;;;;;5046158;28;20037;-80
2022/06/01 05:31:19;;;;;;;17.48;14.32;;;12.00;99.90;;;;;;5046276;28;20051;-80
2022/06/01 05:33:47;;;;;;;18.23;14.23;;;12.10;99.90;;;;;;5044843;28;20057;-80
2022/06/01 05:36:15;;;;;;;19.02;13.48;;;12.10;99.90;;;;;;5040681;28;20447;-80
2022/06/01 05:38:42;;;;;;;18.38;14.77;;;12.10;99.90;;;;;;5041704;28;20049;-80
2022/06/01 05:41:08;;;;;;;16.73;14.20;;;12.10;99.90;;;;;;5047964;28;20049;-81
2022/06/01 05:43:35;;;;;;;17.42;14.77;;;12.10;99.90;;;;;;5039454;28;20041;-79
2022/06/01 05:46:02;;;;;;;17.88;15.63;;;12.20;99.90;;;;;;5041072;28;20125;-78
2022/06/01 05:48:28;;;;;;;18.45;15.10;;;12.20;99.90;;;;;;5045320;28;20040;-79
2022/06/01 05:50:53;;;;;;;20.92;15.57;;;12.20;99.90;;;;;;5032436;28;20457;-78
2022/06/01 05:53:19;;;;;;;21.20;16.48;;;12.20;99.90;;;;;;5042725;28;20049;-78
2022/06/01 05:55:45;;;;;;;19.45;16.38;;;12.20;99.90;;;;;;5045170;28;20029;-77
2022/06/01 05:58:17;;;;;;;18.45;15.45;;;12.20;99.90;;;;;;5041798;28;20109;-79
2022/06/01 06:00:44;;;;;;;23.88;15.85;;;12.20;99.90;;;;;;5040998;28;20040;-77
2022/06/01 06:03:11;;;;;;;21.63;16.52;;;12.30;99.90;;;;;;5034952;28;20154;-79
2022/06/01 06:08:22;;;;;;;18.65;15.02;;;12.40;99.90;;;;;;5046353;28;20049;-79
2022/06/01 06:10:47;;;;;;;19.00;15.88;;;12.40;99.90;;;;;;5040680;28;20187;-79
2022/06/01 06:13:13;;;;;;;25.70;15.63;;;12.40;99.90;;;;;;5041509;28;20067;-79
2022/06/01 06:15:39;;;;;;;18.15;15.25;;;12.30;99.90;;;;;;5042674;28;20049;-79
2022/06/01 06:18:05;;;;;;;21.17;15.77;;;12.40;99.90;;;;;;5041151;28;20036;-79
2022/06/01 06:20:33;;;;;;;18.25;14.77;;;12.40;99.90;;;;;;5038328;28;20098;-78
2022/06/01 06:22:59;;;;;;;19.63;14.50;;;12.50;99.90;;;;;;5038831;28;20124;-78
2022/06/01 06:25:24;;;;;;;23.85;16.17;;;12.60;99.90;;;;;;5034990;28;20487;-79
2022/06/01 06:27:50;;;;;;;18.85;14.55;;;12.60;99.90;;;;;;5044318;28;20051;-78
2022/06/01 06:30:18;;;;;;;17.05;13.65;;;12.80;99.90;;;;;;5041516;28;20427;-79
2022/06/01 06:32:44;;;;;;;15.02;13.23;;;12.90;99.90;;;;;;5046053;28;20451;-80
2022/06/01 06:35:10;;;;;;;19.42;13.68;;;13.00;99.90;;;;;;5039037;28;20052;-78
2022/06/01 06:37:36;;;;;;;16.65;13.05;;;13.10;99.90;;;;;;5043057;28;20393;-80
2022/06/01 06:40:02;;;;;;;17.92;12.60;;;13.10;99.90;;;;;;5034050;28;20150;-79
2022/06/01 06:42:27;;;;;;;15.18;11.82;;;13.30;99.90;;;;;;5041063;28;20049;-78
2022/06/01 06:44:53;;;;;;;17.17;13.15;;;13.40;99.90;;;;;;5040995;28;20045;-78
2022/06/01 06:47:19;;;;;;;15.77;13.15;;;13.50;99.90;;;;;;5057156;28;20048;-79
2022/06/01 06:49:45;;;;;;;14.88;11.63;;;13.40;99.90;;;;;;5040020;28;20048;-76
2022/06/01 06:52:10;;;;;;;15.00;11.00;;;13.50;99.90;;;;;;5041537;28;22188;-77
2022/06/01 06:54:36;;;;;;;15.60;11.68;;;13.50;99.90;;;;;;5044041;28;20071;-78
2022/06/01 06:57:02;;;;;;;11.07;8.60;;;13.50;99.90;;;;;;5047822;28;20452;-78
2022/06/01 06:59:28;;;;;;;13.10;5.25;;;13.50;99.90;;;;;;5046250;28;20758;-80
2022/06/01 07:01:54;;;;;;;10.20;3.65;;;13.40;99.90;;;;;;5035630;28;20044;-82
2022/06/01 07:04:19;;;;;;;8.45;2.88;;;13.20;99.90;;;;;;5038386;28;20041;-85
2022/06/01 07:06:45;;;;;;;5.18;2.17;;;12.90;99.90;;;;;;5042634;28;20049;-85
2022/06/01 07:09:10;;;;;;;10.23;3.03;;;12.70;99.90;;;;;;5049229;28;20037;-84
2022/06/01 07:11:38;;;;;;;10.70;4.20;;;12.50;99.90;;;;;;5045386;28;20456;-84
2022/06/01 07:14:04;;;;;;;10.20;4.53;;;12.30;99.90;;;;;;5036478;28;20163;-85
2022/06/01 07:16:32;;;;;;;7.47;4.70;;;12.10;99.90;;;;;;5048621;28;20047;-85
2022/06/01 07:19:00;;;;;;;9.05;5.20;;;12.00;99.90;;;;;;5039430;28;20055;-85
2022/06/01 07:21:28;;;;;;;10.70;4.72;;;11.80;99.90;;;;;;5039911;28;20091;-84
2022/06/01 07:23:54;;;;;;;10.30;5.10;;;11.80;99.90;;;;;;5044161;28;20049;-85
2022/06/01 07:26:26;;;;;;;13.40;6.07;;;11.60;99.90;;;;;;5040327;28;20045;-85
2022/06/01 07:28:52;;;;;;;26.70;6.85;;;11.60;99.90;;;;;;5040760;28;20410;-87
2022/06/01 07:31:18;;;;;;;13.77;7.80;;;11.50;99.90;;;;;;5041089;28;20488;-86
2022/06/01 07:33:46;;;;;;;9.57;6.40;;;11.50;99.90;;;;;;5035984;28;20122;-88
2022/06/01 07:36:14;;;;;;;13.07;7.40;;;11.50;99.90;;;;;;5034177;28;20061;-87
2022/06/01 07:44:21;;;;;;;14.63;8.45;;;11.60;99.90;;;;;;5049049;28;20049;-87
2022/06/01 07:46:47;;;;;;;17.65;8.52;;;11.70;99.90;;;;;;5040216;28;20139;-86
2022/06/01 07:49:14;;;;;;;14.20;8.90;;;11.70;99.90;;;;;;5039380;28;20056;-87
2022/06/01 07:51:41;;;;;;;15.02;10.10;;;11.80;99.90;;;;;;5042584;28;20052;-87
2022/06/01 07:54:07;;;;;;;21.70;10.13;;;11.90;99.90;;;;;;5053039;28;20572;-87
2022/06/01 07:56:33;;;;;;;13.68;10.07;;;11.90;99.90;;;;;;5049143;28;20049;-85
2022/06/01 07:58:59;;;;;;;13.80;10.43;;;12.00;99.90;;;;;;5050006;28;20049;-85
2022/06/01 08:01:26;;;;;;;15.85;10.73;;;12.00;99.90;;;;;;5052646;28;20103;-84
2022/06/01 08:03:58;;;;;;;11.85;10.07;;;12.10;99.90;;;;;;5042439;28;20099;-83
2022/06/01 08:06:25;;;;;;;15.40;10.38;;;12.10;99.90;;;;;;5046823;28;20531;-85
2022/06/01 08:08:51;;;;;;;15.13;10.18;;;12.30;99.90;;;;;;5043051;28;20356;-81
2022/06/01 08:11:17;;;;;;;18.33;10.20;;;12.30;99.90;;;;;;5049240;28;20037;-82
2022/06/01 08:13:43;;;;;;;15.73;10.93;;;12.50;99.90;;;;;;5046810;28;20500;-79
2022/06/01 08:16:09;;;;;;;16.98;11.52;;;12.50;99.90;;;;;;5043326;28;20354;-81
2022/06/01 08:18:34;;;;;;;14.48;11.25;;;12.60;99.90;;;;;;5037504;28;20055;-81
2022/06/01 08:21:00;;;;;;;18.40;13.35;;;12.70;99.90;;;;;;5039052;28;20037;-82
2022/06/01 08:23:29;;;;;;;14.88;12.63;;;12.80;99.90;;;;;;5071981;28;20060;-81
2022/06/01 08:25:55;;;;;;;20.15;13.70;;;12.90;99.90;;;;;;5038893;28;20053;-81
2022/06/01 08:28:21;;;;;;;15.95;12.02;;;13.00;99.90;;;;;;5039084;28;20037;-81
2022/06/01 08:30:48;;;;;;;13.85;9.77;;;13.20;99.90;;;;;;5033660;28;20049;-81
2022/06/01 08:33:14;;;;;;;11.85;10.65;;;13.20;99.90;;;;;;5037965;28;20477;-81
2022/06/01 08:35:43;;;;;;;12.70;9.40;;;13.30;99.90;;;;;;5036594;28;20441;-82
2022/06/01 08:38:09;;;;;;;11.52;9.85;;;13.30;99.90;;;;;;5035770;28;20044;-81
2022/06/01 08:40:58;;;;;;;10.00;8.30;;;13.30;99.90;;;;;;5040520;28;20049;-82
2022/06/01 08:43:27;;;;;;;12.07;9.32;;;13.30;99.90;;;;;;5069260;28;20041;-82
2022/06/01 08:46:00;;;;;;;9.18;7.88;;;13.30;99.90;;;;;;5033030;28;20110;-80
2022/06/01 08:48:39;;;;;;;9.32;8.30;;;13.30;99.90;;;;;;5036158;28;20041;-82
2022/06/01 08:51:05;;;;;;;11.15;8.45;;;13.30;99.90;;;;;;5039909;28;20598;-83
2022/06/01 08:53:32;;;;;;;10.52;8.25;;;13.40;99.90;;;;;;5024962;28;20111;-82
2022/06/01 08:56:04;;;;;;;9.35;7.78;;;13.50;99.90;;;;;;5018163;28;20091;-83
2022/06/01 08:58:53;;;;;;;9.73;8.02;;;13.60;99.90;;;;;;5017931;28;20052;-82
2022/06/01 09:01:37;;;;;;;10.93;7.38;;;13.70;99.90;;;;;;5022042;28;20194;-82
2022/06/01 09:04:40;;;;;;;9.55;6.53;;;13.80;99.90;;;;;;5029835;28;20040;-82
2022/06/01 09:07:09;;;;;;;6.72;6.03;;;13.90;99.90;;;;;;5031242;28;20044;-81
2022/06/01 09:10:05;;;;;;;7.05;5.90;;;14.00;99.90;;;;;;5039777;28;20055;-80
2022/06/01 09:12:33;;;;;;;9.10;7.07;;;14.10;99.90;;;;;;5032242;28;20456;-80
2022/06/01 09:15:21;;;;;;;8.50;6.63;;;14.10;99.90;;;;;;5068052;28;20061;-81
2022/06/01 09:17:47;;;;;;;7.90;6.55;;;14.30;99.90;;;;;;5032529;28;20073;-79
2022/06/01 09:23:11;;;;;;;6.70;4.63;;;14.40;99.90;;;;;;5031747;28;20616;-79
2022/06/01 09:25:38;;;;;;;5.82;3.72;;;14.40;99.90;;;;;;5044034;28;20049;-81
2022/06/01 09:28:23;;;;;;;4.90;3.65;;;14.40;99.90;;;;;;5046807;28;20037;-79
2022/06/01 09:31:18;;;;;;;5.25;3.70;;;14.40;99.90;;;;;;5047758;28;20060;-79
2022/06/01 09:33:44;;;;;;;5.75;3.92;;;14.30;99.90;;;;;;5040515;28;20052;-79
2022/06/01 09:36:10;;;;;;;4.63;3.70;;;14.30;99.90;;;;;;5047143;28;20071;-79
2022/06/01 09:38:53;;;;;;;5.78;4.38;;;14.30;99.90;;;;;;5035772;28;20110;-78
2022/06/01 09:41:36;;;;;;;7.30;4.18;;;14.30;99.90;;;;;;5032772;28;20084;-80
2022/06/01 09:44:08;;;;;;;4.82;4.22;;;14.30;99.90;;;;;;5039681;28;20137;-80
2022/06/01 09:46:57;;;;;;;5.13;4.25;;;14.50;99.90;;;;;;5031676;28;20048;-80
2022/06/01 09:49:31;;;;;;;6.43;5.30;;;14.50;99.90;;;;;;5035693;28;20060;-80
2022/06/01 09:52:07;;;;;;;5.15;4.05;;;14.50;99.90;;;;;;5038006;28;20056;-80
2022/06/01 09:54:37;;;;;;;7.07;3.88;;;14.50;99.90;;;;;;5029394;28;20069;-79
2022/06/01 09:57:28;;;;;;;4.03;3.47;;;14.60;99.90;;;;;;5030768;28;20032;-79
2022/06/01 10:08:29;;;;;;;3.47;2.72;;;14.50;99.90;;;;;;5033588;28;20081;-79
2022/06/01 10:11:00;;;;;;;4.60;2.90;;;14.60;99.90;;;;;;5032013;28;20445;-79
2022/06/01 10:13:57;;;;;;;4.25;3.00;;;14.60;99.90;;;;;;5030683;28;20033;-79
2022/06/01 10:16:43;;;;;;;3.08;2.05;;;14.50;99.90;;;;;;5023783;28;20248;-79
2022/06/01 10:19:12;;;;;;;3.63;2.65;;;14.60;99.90;;;;;;5033964;28;20044;-78
2022/06/01 10:21:52;;;;;;;3.95;2.75;;;14.60;99.90;;;;;;5031738;28;20453;-78
2022/06/01 10:24:26;;;;;;;2.20;1.42;;;14.60;99.90;;;;;;5034238;28;20057;-78
2022/06/01 10:26:55;;;;;;;6.53;3.53;;;14.60;99.90;;;;;;5034751;28;20052;-77
2022/06/01 10:29:29;;;;;;;1.63;1.30;;;14.60;99.90;;;;;;5036771;28;20072;-78
2022/06/01 10:32:04;;;;;;;3.33;2.10;;;14.60;99.90;;;;;;5034683;28;20052;-78
2022/06/01 10:34:37;;;;;;;3.58;1.67;;;14.70;99.90;;;;;;5070044;28;20055;-77
2022/06/01 10:37:40;;;;;;;3.50;1.70;;;14.80;99.90;;;;;;5065242;28;20512;-78
2022/06/01 10:40:16;;;;;;;4.55;2.30;;;15.00;99.90;;;;;;5038335;28;20174;-77
2022/06/01 10:45:52;;;;;;;2.65;2.08;;;15.10;99.90;;;;;;5029239;28;20077;-77
2022/06/01 10:48:51;;;;;;;2.60;1.45;;;15.20;99.90;;;;;;5034580;28;20044;-77
2022/06/01 10:51:22;;;;;;;2.83;1.55;;;15.20;99.90;;;;;;5014776;28;20432;-76
2022/06/01 10:54:04;;;;;;;7.45;2.00;;;15.30;99.90;;;;;;5031484;28;20156;-76
2022/06/01 10:56:31;;;;;;;1.75;1.17;;;15.40;99.90;;;;;;5035480;28;20189;-78
2022/06/01 10:59:01;;;;;;;1.73;1.23;;;15.50;99.90;;;;;;5030651;28;20041;-77
2022/06/01 11:01:48;;;;;;;2.55;1.60;;;15.50;99.90;;;;;;5033380;28;20053;-78
2022/06/01 11:04:35;;;;;;;1.60;1.30;;;15.60;99.90;;;;;;5033201;28;20446;-76
2022/06/01 11:07:23;;;;;;;2.10;1.50;;;15.50;99.90;;;;;;5028787;28;20054;-77
2022/06/01 11:10:03;;;;;;;2.38;1.60;;;15.50;99.90;;;;;;5063383;28;20045;-77
2022/06/01 11:12:50;;;;;;;4.90;2.10;;;15.50;99.90;;;;;;5032155;28;20060;-77
2022/06/01 11:15:33;;;;;;;7.00;2.20;;;15.60;99.90;;;;;;5069196;28;20053;-77
2022/06/01 11:18:22;;;;;;;2.75;1.98;;;15.60;99.90;;;;;;5041355;28;20064;-77
2022/06/01 11:21:11;;;;;;;3.72;2.13;;;15.60;99.90;;;;;;5043801;28;20069;-77
2022/06/01 11:24:04;;;;;;;3.72;2.10;;;15.60;99.90;;;;;;5040009;28;20133;-77
2022/06/01 11:27:03;;;;;;;3.80;2.30;;;15.50;99.90;;;;;;5030143;28;20044;-77
2022/06/01 11:29:49;;;;;;;3.15;2.33;;;15.40;99.90;;;;;;5037018;28;20126;-77
2022/06/01 11:32:21;;;;;;;3.47;2.33;;;15.40;99.90;;;;;;5032811;28;20111;-77
2022/06/01 11:34:57;;;;;;;3.55;2.60;;;15.30;99.90;;;;;;5030570;28;20098;-77
2022/06/01 11:37:33;;;;;;;4.45;2.15;;;15.30;99.90;;;;;;5033424;28;20075;-77
2022/06/01 11:40:44;;;;;;;4.03;2.40;;;15.30;99.90;;;;;;5035243;28;20802;-77
2022/06/01 11:43:15;;;;;;;3.83;2.13;;;15.30;99.90;;;;;;5020136;28;20057;-77
2022/06/01 11:45:51;;;;;;;2.55;1.63;;;15.30;99.90;;;;;;5029818;28;20546;-78
2022/06/01 11:48:41;;;;;;;2.78;1.30;;;15.40;99.90;;;;;;5032355;28;20116;-77
2022/06/01 11:51:20;;;;;;;2.80;1.42;;;15.40;99.90;;;;;;5021018;28;20440;-78
2022/06/01 11:54:05;;;;;;;2.97;1.00;;;15.50;99.90;;;;;;5035606;28;20106;-77
2022/06/01 11:56:54;;;;;;;2.40;1.10;;;15.60;99.90;;;;;;5038114;28;20053;-78
2022/06/01 11:59:31;;;;;;;3.20;1.43;;;15.70;99.90;;;;;;5024015;28;20053;-77
2022/06/01 12:01:58;;;;;;;2.40;1.00;;;15.90;99.90;;;;;;5032845;28;20500;-78
2022/06/01 12:04:28;;;;;;;5.20;1.35;;;15.90;99.90;;;;;;5034526;28;20053;-76
2022/06/01 12:07:20;;;;;;;1.80;1.02;;;15.90;99.90;;;;;;5032676;28;20072;-78
2022/06/01 12:10:05;;;;;;;2.50;1.15;;;15.90;99.90;;;;;;5027203;28;20095;-77
2022/06/01 12:12:36;;;;;;;2.85;1.20;;;15.90;99.90;;;;;;5032592;28;20041;-77
2022/06/01 12:15:13;;;;;;;10.10;1.70;;;15.90;99.90;;;;;;5032173;28;20065;-77
2022/06/01 12:17:39;;;;;;;2.55;1.13;;;16.00;99.90;;;;;;5030809;28;20042;-77
2022/06/01 12:20:37;;;;;;;4.40;1.23;;;16.10;99.90;;;;;;5031154;28;20126;-77
2022/06/01 12:28:49;;;;;;;1.67;1.20;;;16.20;99.90;;;;;;5030456;28;20049;-76
2022/06/01 12:31:27;;;;;;;2.70;1.42;;;16.20;99.90;;;;;;5027760;28;20063;-78
2022/06/01 12:34:08;;;;;;;2.30;1.40;;;16.30;99.90;;;;;;5035788;28;20477;-77
2022/06/01 12:36:37;;;;;;;2.15;1.25;;;16.30;99.90;;;;;;5030693;28;20092;-78
2022/06/01 12:39:19;;;;;;;4.03;1.40;;;16.30;99.90;;;;;;5032297;28;20040;-77
2022/06/01 12:41:50;;;;;;;1.95;1.50;;;16.30;99.90;;;;;;5037090;28;20431;-78
2022/06/01 12:44:17;;;;;;;11.63;1.95;;;16.20;99.90;;;;;;5032126;28;20052;-78
2022/06/01 12:46:48;;;;;;;3.92;1.85;;;16.10;99.90;;;;;;5031717;28;20481;-77
2022/06/01 12:49:35;;;;;;;2.40;1.70;;;16.10;99.90;;;;;;5069636;28;20048;-78
2022/06/01 12:52:05;;;;;;;3.65;1.83;;;16.10;99.90;;;;;;5028600;28;20060;-77
2022/06/01 12:54:37;;;;;;;3.17;2.10;;;16.10;99.90;;;;;;5034438;28;20100;-78
2022/06/01 12:57:06;;;;;;;3.88;1.58;;;16.10;99.90;;;;;;5033566;28;20171;-78
2022/06/01 12:59:37;;;;;;;3.33;1.90;;;16.20;99.90;;;;;;5064619;28;20045;-77
2022/06/01 13:02:10;;;;;;;3.45;1.83;;;16.30;99.90;;;;;;5033243;28;20052;-77
2022/06/01 13:04:36;;;;;;;3.85;1.80;;;16.40;99.90;;;;;;5067021;28;20049;-77
2022/06/01 13:07:02;;;;;;;3.55;2.00;;;16.40;99.90;;;;;;5032714;28;20047;-78
2022/06/01 13:09:31;;;;;;;4.35;1.92;;;16.30;99.90;;;;;;5034501;28;20357;-77
2022/06/01 13:12:05;;;;;;;6.32;2.33;;;16.20;99.90;;;;;;5036209;28;20120;-78
2022/06/01 13:14:34;;;;;;;3.60;2.35;;;16.10;99.90;;;;;;5034782;28;20714;-77
2022/06/01 13:17:12;;;;;;;16.95;3.67;;;15.90;99.90;;;;;;5030974;28;20053;-78
2022/06/01 13:19:39;;;;;;;9.27;2.20;;;15.80;99.90;;;;;;5031686;28;20094;-79
2022/06/01 13:22:21;;;;;;;4.32;1.70;;;15.70;99.90;;;;;;5033633;28;20044;-78
2022/06/01 13:24:55;;;;;;;5.63;2.33;;;15.50;99.90;;;;;;5036267;28;20032;-78
2022/06/01 13:27:21;;;;;;;2.63;1.80;;;15.40;99.90;;;;;;5036628;28;20472;-78
2022/06/01 13:29:49;;;;;;;4.75;1.80;;;15.30;99.90;;;;;;5037829;28;20040;-78
2022/06/01 13:32:18;;;;;;;5.53;2.10;;;15.10;99.90;;;;;;5036391;28;20051;-78